DAH2017 DAAG-EDDF
Flight info
| Callsign | DAH2017 |
|---|---|
| Flight time | N/A |
| Altitude | 38000 |
| Route | OTARO1B OTARO DCT RISEP DCT LUNOR DCT ZETCO DCT LERMA DCT PIGOS DCT EKSID DCT NOSTA DCT NOPMU DCT ABESI DCT LADOL T163 EMPAX EMPAX5B |
| Aircraft | A332/H-SDE3GHIJ2J3J5M1RVWXY/LB2D1 |
Departure
| Time | N/A |
|---|---|
| Airport | Houari Boumediene Airport (DAAG) |
Arrival
| Time | 2026-04-14 10:05 |
|---|---|
| Airport | Frankfurt Main Airport (EDDF) |
| Time | Latitude | Longitude | Altitude | Speed | Heading |
|---|---|---|---|---|---|
| 2026-04-14 08:55 | 43.44937 | 7.25750 | 38000 ft | 474 kts | 25° |
| 2026-04-14 08:55 | 43.47909 | 7.27697 | 38000 ft | 474 kts | 25° |
| 2026-04-14 08:56 | 43.53870 | 7.31608 | 38000 ft | 474 kts | 25° |
| 2026-04-14 08:56 | 43.59716 | 7.35787 | 38000 ft | 474 kts | 34° |
| 2026-04-14 08:57 | 43.64572 | 7.41862 | 38001 ft | 473 kts | 51° |
| 2026-04-14 08:57 | 43.68541 | 7.49100 | 38000 ft | 473 kts | 54° |
| 2026-04-14 08:58 | 43.72308 | 7.56509 | 38000 ft | 474 kts | 55° |
| 2026-04-14 08:58 | 43.76104 | 7.64030 | 38000 ft | 474 kts | 55° |
| 2026-04-14 08:59 | 43.79896 | 7.71482 | 38000 ft | 474 kts | 53° |
| 2026-04-14 08:59 | 43.84439 | 7.78065 | 38001 ft | 474 kts | 40° |
| 2026-04-14 09:00 | 43.89545 | 7.83783 | 38000 ft | 476 kts | 38° |
| 2026-04-14 09:00 | 43.94961 | 7.89069 | 38000 ft | 478 kts | 28° |
| 2026-04-14 09:01 | 44.01085 | 7.92697 | 37998 ft | 479 kts | 20° |
| 2026-04-14 09:01 | 44.07341 | 7.95858 | 37999 ft | 478 kts | 19° |
| 2026-04-14 09:02 | 44.13614 | 7.98943 | 37999 ft | 480 kts | 19° |
| 2026-04-14 09:02 | 44.19927 | 8.02078 | 38001 ft | 482 kts | 20° |
| 2026-04-14 09:03 | 44.26218 | 8.05235 | 37999 ft | 480 kts | 20° |
| 2026-04-14 09:03 | 44.32494 | 8.08402 | 37999 ft | 479 kts | 20° |
| 2026-04-14 09:04 | 44.38755 | 8.11568 | 38000 ft | 479 kts | 20° |
| 2026-04-14 09:04 | 44.45016 | 8.14742 | 38001 ft | 478 kts | 20° |
| 2026-04-14 09:05 | 44.51270 | 8.17917 | 38001 ft | 478 kts | 20° |
| 2026-04-14 09:05 | 44.57518 | 8.21096 | 38000 ft | 477 kts | 20° |
| 2026-04-14 09:06 | 44.63750 | 8.24275 | 38001 ft | 477 kts | 20° |
| 2026-04-14 09:06 | 44.69983 | 8.27462 | 38000 ft | 476 kts | 20° |
| 2026-04-14 09:07 | 44.76163 | 8.30629 | 38001 ft | 477 kts | 20° |
| 2026-04-14 09:07 | 44.82464 | 8.33865 | 38002 ft | 487 kts | 20° |
| 2026-04-14 09:08 | 44.88860 | 8.37158 | 38000 ft | 490 kts | 20° |
| 2026-04-14 09:08 | 44.95252 | 8.40456 | 38000 ft | 489 kts | 20° |
| 2026-04-14 09:09 | 45.01632 | 8.43756 | 38000 ft | 489 kts | 20° |
| 2026-04-14 09:09 | 45.08025 | 8.47070 | 38000 ft | 489 kts | 20° |
| 2026-04-14 09:10 | 45.14405 | 8.50386 | 38000 ft | 488 kts | 20° |
| 2026-04-14 09:10 | 45.20782 | 8.53708 | 38000 ft | 488 kts | 20° |
| 2026-04-14 09:11 | 45.27160 | 8.57038 | 38000 ft | 488 kts | 20° |
| 2026-04-14 09:11 | 45.33541 | 8.60379 | 38000 ft | 488 kts | 20° |
| 2026-04-14 09:12 | 45.39917 | 8.63725 | 38000 ft | 489 kts | 20° |
| 2026-04-14 09:12 | 45.46294 | 8.67079 | 38000 ft | 489 kts | 20° |
| 2026-04-14 09:13 | 45.52671 | 8.70442 | 38000 ft | 489 kts | 20° |
| 2026-04-14 09:13 | 45.59009 | 8.73791 | 38000 ft | 489 kts | 20° |
| 2026-04-14 09:14 | 45.65384 | 8.77169 | 38000 ft | 489 kts | 20° |
| 2026-04-14 09:14 | 45.71771 | 8.80562 | 38000 ft | 490 kts | 20° |
| 2026-04-14 09:15 | 45.78157 | 8.83962 | 38000 ft | 490 kts | 20° |
| 2026-04-14 09:15 | 45.84545 | 8.87371 | 38000 ft | 490 kts | 20° |
| 2026-04-14 09:16 | 45.90945 | 8.90795 | 38001 ft | 490 kts | 20° |
| 2026-04-14 09:16 | 45.97337 | 8.94223 | 38000 ft | 491 kts | 20° |
| 2026-04-14 09:17 | 46.03741 | 8.97667 | 38000 ft | 491 kts | 20° |
| 2026-04-14 09:17 | 46.10136 | 9.01114 | 37999 ft | 492 kts | 20° |
| 2026-04-14 09:18 | 46.16752 | 9.03732 | 38002 ft | 495 kts | 6° |
| 2026-04-14 09:18 | 46.23609 | 9.04027 | 38000 ft | 492 kts | 359° |
| 2026-04-14 09:19 | 46.30452 | 9.03765 | 37998 ft | 494 kts | 358° |
| 2026-04-14 09:19 | 46.37369 | 9.03399 | 38002 ft | 500 kts | 358° |
| 2026-04-14 09:20 | 46.44315 | 9.03060 | 38000 ft | 499 kts | 358° |
| 2026-04-14 09:20 | 46.51273 | 9.02749 | 37998 ft | 502 kts | 358° |
| 2026-04-14 09:21 | 46.58302 | 9.02445 | 38001 ft | 507 kts | 358° |
| 2026-04-14 09:21 | 46.65347 | 9.02140 | 37999 ft | 506 kts | 358° |
| 2026-04-14 09:22 | 46.72384 | 9.01833 | 38002 ft | 504 kts | 358° |
| 2026-04-14 09:22 | 46.79340 | 9.01528 | 37997 ft | 501 kts | 358° |
| 2026-04-14 09:23 | 46.86272 | 9.01223 | 37999 ft | 502 kts | 358° |
| 2026-04-14 09:23 | 46.91946 | 9.00973 | 38001 ft | 499 kts | 358° |
| 2026-04-14 09:24 | 46.98452 | 9.00685 | 37999 ft | 499 kts | 358° |
| 2026-04-14 09:24 | 47.05383 | 9.00378 | 38001 ft | 499 kts | 358° |
| 2026-04-14 09:25 | 47.19000 | 8.99773 | 38000 ft | 493 kts | 358° |
| 2026-04-14 09:26 | 47.25848 | 8.99467 | 37999 ft | 492 kts | 358° |
| 2026-04-14 09:26 | 47.32705 | 8.99159 | 38000 ft | 494 kts | 358° |
| 2026-04-14 09:27 | 47.38193 | 8.98913 | 37998 ft | 491 kts | 358° |
| 2026-04-14 09:29 | 47.61671 | 8.97855 | 37259 ft | 465 kts | 358° |
| 2026-04-14 09:29 | 47.64898 | 8.97708 | 36696 ft | 463 kts | 358° |
| 2026-04-14 09:29 | 47.68108 | 8.97563 | 36278 ft | 462 kts | 358° |
| 2026-04-14 09:29 | 47.71322 | 8.97416 | 36024 ft | 464 kts | 358° |
| 2026-04-14 09:30 | 47.74558 | 8.97269 | 35786 ft | 465 kts | 357° |
| 2026-04-14 09:30 | 47.77796 | 8.97121 | 35536 ft | 466 kts | 357° |
| 2026-04-14 09:30 | 47.81038 | 8.96973 | 35278 ft | 466 kts | 357° |
| 2026-04-14 09:30 | 47.84274 | 8.96825 | 35065 ft | 466 kts | 357° |
| 2026-04-14 09:31 | 47.87509 | 8.96677 | 34823 ft | 465 kts | 357° |
| 2026-04-14 09:31 | 47.90748 | 8.96529 | 34279 ft | 466 kts | 357° |
| 2026-04-14 09:31 | 47.93988 | 8.96381 | 33629 ft | 465 kts | 357° |
| 2026-04-14 09:31 | 47.97214 | 8.96233 | 32906 ft | 463 kts | 357° |
| 2026-04-14 09:32 | 48.00436 | 8.96085 | 32080 ft | 464 kts | 357° |
| 2026-04-14 09:32 | 48.03671 | 8.95936 | 31243 ft | 466 kts | 356° |
| 2026-04-14 09:32 | 48.10206 | 8.95632 | 29492 ft | 471 kts | 356° |
| 2026-04-14 09:33 | 48.13486 | 8.95480 | 29188 ft | 471 kts | 356° |
| 2026-04-14 09:33 | 48.16758 | 8.95506 | 28907 ft | 471 kts | 2° |
| 2026-04-14 09:33 | 48.20018 | 8.95898 | 28629 ft | 469 kts | 4° |
| 2026-04-14 09:33 | 48.23265 | 8.96355 | 28354 ft | 467 kts | 4° |
| 2026-04-14 09:34 | 48.26494 | 8.96830 | 28087 ft | 466 kts | 4° |
| 2026-04-14 09:34 | 48.29711 | 8.97311 | 27812 ft | 464 kts | 4° |
| 2026-04-14 09:34 | 48.32917 | 8.97794 | 27542 ft | 462 kts | 4° |
| 2026-04-14 09:34 | 48.36112 | 8.98278 | 27280 ft | 460 kts | 4° |
| 2026-04-14 09:35 | 48.39293 | 8.98761 | 27019 ft | 459 kts | 5° |
| 2026-04-14 09:35 | 48.42459 | 8.99243 | 26768 ft | 457 kts | 5° |
| 2026-04-14 09:35 | 48.45619 | 8.99725 | 26507 ft | 455 kts | 5° |
| 2026-04-14 09:35 | 48.48766 | 9.00205 | 26262 ft | 454 kts | 5° |
| 2026-04-14 09:36 | 48.51901 | 9.00683 | 26036 ft | 452 kts | 5° |
| 2026-04-14 09:36 | 48.55020 | 9.01160 | 25762 ft | 450 kts | 5° |
| 2026-04-14 09:36 | 48.58134 | 9.01636 | 25396 ft | 449 kts | 5° |
| 2026-04-14 09:36 | 48.61231 | 9.02110 | 25001 ft | 446 kts | 5° |
| 2026-04-14 09:37 | 48.64304 | 9.02692 | 24624 ft | 444 kts | 8° |
| 2026-04-14 09:37 | 48.67349 | 9.03403 | 24246 ft | 442 kts | 8° |
| 2026-04-14 09:37 | 48.70380 | 9.04134 | 23871 ft | 440 kts | 9° |
| 2026-04-14 09:37 | 48.73394 | 9.04862 | 23464 ft | 438 kts | 8° |
| 2026-04-14 09:38 | 48.76401 | 9.05585 | 23016 ft | 436 kts | 8° |
| 2026-04-14 09:38 | 48.79381 | 9.06301 | 22580 ft | 434 kts | 8° |
| 2026-04-14 09:38 | 48.82358 | 9.07015 | 22143 ft | 431 kts | 8° |
| 2026-04-14 09:38 | 48.85320 | 9.07726 | 21730 ft | 429 kts | 8° |
| 2026-04-14 09:39 | 48.88260 | 9.08401 | 21302 ft | 426 kts | 6° |
| 2026-04-14 09:39 | 48.91192 | 9.08879 | 20904 ft | 423 kts | 4° |
| 2026-04-14 09:39 | 48.94115 | 9.09292 | 20483 ft | 420 kts | 4° |
| 2026-04-14 09:39 | 48.97009 | 9.09694 | 20080 ft | 418 kts | 4° |
| 2026-04-14 09:40 | 48.99899 | 9.10099 | 19688 ft | 416 kts | 4° |
| 2026-04-14 09:40 | 49.02776 | 9.10505 | 19296 ft | 414 kts | 4° |
| 2026-04-14 09:40 | 49.05640 | 9.10910 | 18905 ft | 412 kts | 4° |
| 2026-04-14 09:40 | 49.08482 | 9.11314 | 18540 ft | 410 kts | 4° |
| 2026-04-14 09:41 | 49.11268 | 9.11712 | 18171 ft | 403 kts | 4° |
| 2026-04-14 09:41 | 49.14009 | 9.12104 | 17925 ft | 389 kts | 4° |
| 2026-04-14 09:41 | 49.16665 | 9.12485 | 17715 ft | 376 kts | 4° |
| 2026-04-14 09:41 | 49.19230 | 9.12852 | 17517 ft | 364 kts | 4° |
| 2026-04-14 09:42 | 49.21716 | 9.13209 | 17321 ft | 353 kts | 4° |
| 2026-04-14 09:42 | 49.24125 | 9.13554 | 17138 ft | 342 kts | 4° |
| 2026-04-14 09:42 | 49.26458 | 9.13889 | 16943 ft | 333 kts | 4° |
| 2026-04-14 09:42 | 49.28746 | 9.14107 | 16615 ft | 327 kts | 356° |
| 2026-04-14 09:43 | 49.30937 | 9.13423 | 16268 ft | 319 kts | 334° |
| 2026-04-14 09:43 | 49.32718 | 9.11503 | 16151 ft | 312 kts | 310° |
| 2026-04-14 09:43 | 49.33819 | 9.08692 | 16141 ft | 309 kts | 287° |
| 2026-04-14 09:43 | 49.34112 | 9.05451 | 16143 ft | 307 kts | 265° |
| 2026-04-14 09:44 | 49.33581 | 9.02312 | 16146 ft | 305 kts | 243° |
| 2026-04-14 09:44 | 49.32330 | 8.99718 | 16145 ft | 305 kts | 221° |
| 2026-04-14 09:44 | 49.30512 | 8.98063 | 16144 ft | 306 kts | 200° |
| 2026-04-14 09:44 | 49.28421 | 8.97465 | 16142 ft | 308 kts | 186° |
| 2026-04-14 09:45 | 49.26277 | 8.97242 | 16144 ft | 309 kts | 185° |
| 2026-04-14 09:45 | 49.24128 | 8.97026 | 16144 ft | 310 kts | 185° |
| 2026-04-14 09:45 | 49.21977 | 8.96785 | 16142 ft | 310 kts | 185° |
| 2026-04-14 09:45 | 49.19826 | 8.96643 | 16143 ft | 310 kts | 179° |
| 2026-04-14 09:46 | 49.17716 | 8.97329 | 16143 ft | 313 kts | 158° |
| 2026-04-14 09:46 | 49.15945 | 8.99246 | 16146 ft | 316 kts | 133° |
| 2026-04-14 09:46 | 49.14813 | 9.02123 | 16145 ft | 320 kts | 110° |
| 2026-04-14 09:46 | 49.14479 | 9.05490 | 16146 ft | 327 kts | 92° |
| 2026-04-14 09:47 | 49.14619 | 9.09112 | 16151 ft | 358 kts | 79° |
| 2026-04-14 09:47 | 49.15561 | 9.12767 | 16145 ft | 385 kts | 57° |
| 2026-04-14 09:47 | 49.17407 | 9.15772 | 16139 ft | 393 kts | 36° |
| 2026-04-14 09:47 | 49.19833 | 9.17693 | 16049 ft | 394 kts | 17° |
| 2026-04-14 09:48 | 49.22511 | 9.18418 | 15361 ft | 393 kts | 359° |
| 2026-04-14 09:48 | 49.25170 | 9.17765 | 14766 ft | 385 kts | 339° |
| 2026-04-14 09:48 | 49.27493 | 9.15847 | 14199 ft | 377 kts | 320° |
| 2026-04-14 09:48 | 49.29417 | 9.13175 | 13557 ft | 372 kts | 314° |
| 2026-04-14 09:49 | 49.31241 | 9.10390 | 12885 ft | 368 kts | 313° |
| 2026-04-14 09:49 | 49.33051 | 9.07630 | 12218 ft | 365 kts | 314° |
| 2026-04-14 09:49 | 49.34835 | 9.04886 | 11560 ft | 362 kts | 314° |
| 2026-04-14 09:49 | 49.36589 | 9.02143 | 10924 ft | 359 kts | 314° |
| 2026-04-14 09:50 | 49.38323 | 8.99418 | 10401 ft | 355 kts | 314° |
| 2026-04-14 09:50 | 49.40046 | 8.96704 | 10186 ft | 354 kts | 313° |
| 2026-04-14 09:50 | 49.41742 | 8.94038 | 10155 ft | 349 kts | 313° |
| 2026-04-14 09:50 | 49.43394 | 8.91483 | 10158 ft | 328 kts | 314° |
| 2026-04-14 09:51 | 49.44960 | 8.89082 | 10167 ft | 309 kts | 314° |
| 2026-04-14 09:51 | 49.46510 | 8.86681 | 10165 ft | 330 kts | 314° |
| 2026-04-14 09:51 | 49.48174 | 8.84104 | 10163 ft | 346 kts | 313° |
| 2026-04-14 09:51 | 49.49853 | 8.81513 | 10166 ft | 326 kts | 313° |
| 2026-04-14 09:52 | 49.51413 | 8.79128 | 10164 ft | 307 kts | 313° |
| 2026-04-14 09:52 | 49.52870 | 8.76917 | 10165 ft | 291 kts | 313° |
| 2026-04-14 09:52 | 49.54313 | 8.74724 | 10172 ft | 287 kts | 314° |
| 2026-04-14 09:52 | 49.55722 | 8.72549 | 10176 ft | 287 kts | 313° |
| 2026-04-14 09:53 | 49.57149 | 8.70342 | 10178 ft | 310 kts | 313° |
| 2026-04-14 09:53 | 49.58756 | 8.67862 | 10176 ft | 341 kts | 313° |
| 2026-04-14 09:53 | 49.60457 | 8.65224 | 10173 ft | 349 kts | 314° |
| 2026-04-14 09:53 | 49.62115 | 8.62619 | 10145 ft | 331 kts | 313° |
| 2026-04-14 09:54 | 49.63689 | 8.60137 | 9960 ft | 317 kts | 313° |
| 2026-04-14 09:54 | 49.65202 | 8.57759 | 9762 ft | 304 kts | 313° |
| 2026-04-14 09:54 | 49.66661 | 8.55482 | 9585 ft | 292 kts | 313° |
| 2026-04-14 09:54 | 49.68066 | 8.53299 | 9373 ft | 283 kts | 313° |
| 2026-04-14 09:55 | 49.69442 | 8.51155 | 8995 ft | 280 kts | 313° |
| 2026-04-14 09:55 | 49.70792 | 8.49014 | 8592 ft | 278 kts | 313° |
| 2026-04-14 09:55 | 49.72123 | 8.46888 | 8293 ft | 273 kts | 314° |
| 2026-04-14 09:55 | 49.73430 | 8.44782 | 7947 ft | 271 kts | 314° |
| 2026-04-14 09:56 | 49.74728 | 8.42664 | 7533 ft | 271 kts | 314° |
| 2026-04-14 09:56 | 49.76007 | 8.40550 | 7255 ft | 266 kts | 314° |
| 2026-04-14 09:56 | 49.77256 | 8.38468 | 6905 ft | 265 kts | 313° |
| 2026-04-14 09:56 | 49.78516 | 8.36364 | 6507 ft | 266 kts | 313° |
| 2026-04-14 09:57 | 49.79760 | 8.34263 | 6152 ft | 263 kts | 313° |
| 2026-04-14 09:57 | 49.80986 | 8.32172 | 5790 ft | 261 kts | 313° |
| 2026-04-14 09:57 | 49.82204 | 8.30092 | 5398 ft | 260 kts | 313° |
| 2026-04-14 09:57 | 49.83408 | 8.28022 | 5034 ft | 258 kts | 313° |
| 2026-04-14 09:58 | 49.84598 | 8.25956 | 4663 ft | 256 kts | 313° |
| 2026-04-14 09:58 | 49.85777 | 8.23890 | 4284 ft | 256 kts | 313° |
| 2026-04-14 09:58 | 49.86930 | 8.21855 | 4102 ft | 246 kts | 313° |
| 2026-04-14 09:58 | 49.88037 | 8.19894 | 3990 ft | 236 kts | 313° |
| 2026-04-14 09:59 | 49.89074 | 8.18039 | 3988 ft | 220 kts | 313° |
| 2026-04-14 09:59 | 49.90058 | 8.16275 | 3986 ft | 215 kts | 313° |
| 2026-04-14 09:59 | 49.91160 | 8.14763 | 3976 ft | 211 kts | 335° |
| 2026-04-14 09:59 | 49.92576 | 8.14410 | 3981 ft | 209 kts | 9° |
| 2026-04-14 10:00 | 49.93872 | 8.15355 | 3985 ft | 208 kts | 37° |
| 2026-04-14 10:00 | 49.94939 | 8.16870 | 3983 ft | 209 kts | 43° |
| 2026-04-14 10:00 | 49.95941 | 8.18504 | 3984 ft | 210 kts | 50° |
| 2026-04-14 10:00 | 49.96653 | 8.20340 | 3980 ft | 212 kts | 63° |
| 2026-04-14 10:01 | 49.97191 | 8.22480 | 3994 ft | 213 kts | 67° |
| 2026-04-14 10:01 | 49.97678 | 8.24576 | 3951 ft | 199 kts | 67° |
| 2026-04-14 10:01 | 49.98144 | 8.26531 | 3789 ft | 189 kts | 66° |
| 2026-04-14 10:01 | 49.98597 | 8.28399 | 3489 ft | 181 kts | 66° |
| 2026-04-14 10:02 | 49.99028 | 8.30194 | 3193 ft | 179 kts | 66° |
| 2026-04-14 10:02 | 49.99465 | 8.32014 | 2912 ft | 180 kts | 67° |
| 2026-04-14 10:02 | 49.99903 | 8.33841 | 2639 ft | 181 kts | 66° |
| 2026-04-14 10:02 | 50.00337 | 8.35654 | 2381 ft | 175 kts | 67° |
| 2026-04-14 10:03 | 50.00746 | 8.37365 | 2131 ft | 162 kts | 67° |
| 2026-04-14 10:03 | 50.01124 | 8.38943 | 1893 ft | 150 kts | 67° |
| 2026-04-14 10:03 | 50.01473 | 8.40402 | 1665 ft | 140 kts | 66° |
| 2026-04-14 10:03 | 50.01795 | 8.41801 | 1431 ft | 137 kts | 67° |
| 2026-04-14 10:04 | 50.02119 | 8.43206 | 1184 ft | 138 kts | 66° |
| 2026-04-14 10:04 | 50.02466 | 8.44601 | 1057 ft | 140 kts | 67° |
| 2026-04-14 10:04 | 50.02819 | 8.46024 | 895 ft | 141 kts | 66° |
| 2026-04-14 10:04 | 50.03160 | 8.47460 | 681 ft | 142 kts | 67° |
| 2026-04-14 10:05 | 50.03501 | 8.48892 | 466 ft | 141 kts | 66° |
| 2026-04-14 10:05 | 50.03849 | 8.50308 | 337 ft | 138 kts | 67° |
| 2026-04-14 10:05 | 50.04141 | 8.51515 | 333 ft | 93 kts | 70° |
| 2026-04-14 10:05 | 50.04296 | 8.52174 | 352 ft | 36 kts | 69° |
| 2026-04-14 10:06 | 50.04331 | 8.52321 | 355 ft | 15 kts | 70° |
| 2026-04-14 10:06 | 50.04395 | 8.52696 | 357 ft | 45 kts | 90° |
| 2026-04-14 10:06 | 50.04375 | 8.52985 | 359 ft | 16 kts | 99° |
| 2026-04-14 10:06 | 50.04360 | 8.53135 | 363 ft | 12 kts | 99° |
| 2026-04-14 10:07 | 50.04350 | 8.53240 | 368 ft | 7 kts | 96° |
| 2026-04-14 10:07 | 50.04351 | 8.53293 | 371 ft | 3 kts | 82° |
| 2026-04-14 10:07 | 50.04357 | 8.53324 | 377 ft | 4 kts | 73° |
| 2026-04-14 10:07 | 50.04373 | 8.53401 | 379 ft | 10 kts | 70° |
| 2026-04-14 10:08 | 50.04396 | 8.53531 | 379 ft | 15 kts | 82° |
| 2026-04-14 10:08 | 50.04408 | 8.53725 | 379 ft | 20 kts | 84° |
| 2026-04-14 10:08 | 50.04422 | 8.53932 | 379 ft | 19 kts | 84° |
| 2026-04-14 10:08 | 50.04437 | 8.54142 | 379 ft | 20 kts | 83° |
| 2026-04-14 10:09 | 50.04451 | 8.54357 | 377 ft | 15 kts | 85° |
| 2026-04-14 10:09 | 50.04437 | 8.54561 | 372 ft | 21 kts | 109° |
| 2026-04-14 10:09 | 50.04370 | 8.54713 | 372 ft | 13 kts | 138° |
| 2026-04-14 10:09 | 50.04340 | 8.54748 | 370 ft | 5 kts | 146° |
| 2026-04-14 10:10 | 50.04329 | 8.54759 | 366 ft | 0 kts | 147° |
| 2026-04-14 10:11 | 50.04312 | 8.54770 | 367 ft | 10 kts | 156° |
| 2026-04-14 10:11 | 50.04248 | 8.54809 | 361 ft | 21 kts | 161° |
| 2026-04-14 10:12 | 50.04130 | 8.54874 | 362 ft | 13 kts | 160° |
| 2026-04-14 10:12 | 50.04081 | 8.54903 | 363 ft | 2 kts | 159° |
| 2026-04-14 10:12 | 50.04075 | 8.54907 | 363 ft | 0 kts | 159° |
| 2026-04-14 10:13 | 50.04046 | 8.54926 | 363 ft | 10 kts | 150° |
| 2026-04-14 10:13 | 50.04034 | 8.55077 | 363 ft | 22 kts | 71° |
| 2026-04-14 10:14 | 50.04091 | 8.55322 | 361 ft | 22 kts | 69° |
| 2026-04-14 10:14 | 50.04149 | 8.55562 | 360 ft | 25 kts | 70° |
| 2026-04-14 10:14 | 50.04191 | 8.55739 | 364 ft | 15 kts | 69° |
| 2026-04-14 10:14 | 50.04199 | 8.55772 | 364 ft | 0 kts | 69° |
| 2026-04-14 10:17 | 50.04200 | 8.55779 | 356 ft | 5 kts | 69° |
| 2026-04-14 10:17 | 50.04230 | 8.55901 | 363 ft | 19 kts | 70° |
| 2026-04-14 10:18 | 50.04324 | 8.56295 | 367 ft | 24 kts | 70° |
| 2026-04-14 10:18 | 50.04376 | 8.56512 | 365 ft | 25 kts | 69° |
| 2026-04-14 10:18 | 50.04425 | 8.56720 | 364 ft | 17 kts | 69° |
| 2026-04-14 10:19 | 50.04474 | 8.56922 | 369 ft | 22 kts | 69° |
| 2026-04-14 10:19 | 50.04517 | 8.57102 | 363 ft | 17 kts | 69° |
| 2026-04-14 10:19 | 50.04566 | 8.57308 | 363 ft | 20 kts | 70° |
| 2026-04-14 10:19 | 50.04616 | 8.57521 | 367 ft | 21 kts | 70° |
| 2026-04-14 10:20 | 50.04668 | 8.57734 | 366 ft | 25 kts | 69° |
| 2026-04-14 10:20 | 50.04744 | 8.57942 | 368 ft | 17 kts | 41° |
| 2026-04-14 10:20 | 50.04800 | 8.58043 | 369 ft | 13 kts | 66° |
| 2026-04-14 10:20 | 50.04848 | 8.58242 | 368 ft | 26 kts | 69° |
| 2026-04-14 10:21 | 50.04916 | 8.58527 | 365 ft | 27 kts | 70° |
| 2026-04-14 10:21 | 50.04962 | 8.58720 | 369 ft | 20 kts | 69° |
| 2026-04-14 10:21 | 50.05023 | 8.58977 | 368 ft | 25 kts | 69° |
| 2026-04-14 10:21 | 50.05070 | 8.59165 | 367 ft | 11 kts | 69° |
| 2026-04-14 10:22 | 50.05105 | 8.59216 | 369 ft | 4 kts | 13° |
| 2026-04-14 10:22 | 50.05162 | 8.59193 | 368 ft | 12 kts | 340° |
| 2026-04-14 10:22 | 50.05179 | 8.59183 | 368 ft | 0 kts | 338° |
| 2026-04-14 10:22 | 50.05178 | 8.59183 | 368 ft | 0 kts | 338° |